createdAt,value
2017-10-01T00:05:53.000Z,20.95
2017-10-01T00:15:53.000Z,20.92
2017-10-01T00:25:53.000Z,20.89
2017-10-01T00:35:53.000Z,20.88
2017-10-01T00:45:53.000Z,20.86
2017-10-01T00:55:53.000Z,20.81
2017-10-01T01:05:53.000Z,20.79
2017-10-01T01:15:53.000Z,20.77
2017-10-01T01:25:53.000Z,20.73
2017-10-01T01:35:53.000Z,20.7
2017-10-01T01:45:53.000Z,20.68
2017-10-01T01:55:53.000Z,20.66
2017-10-01T02:05:53.000Z,20.64
2017-10-01T02:15:53.000Z,20.62
2017-10-01T02:25:53.000Z,20.6
2017-10-01T02:35:53.000Z,20.57
2017-10-01T02:45:53.000Z,20.55
2017-10-01T02:55:53.000Z,20.53
2017-10-01T03:05:53.000Z,20.5
2017-10-01T03:15:53.000Z,20.5
2017-10-01T03:25:53.000Z,20.49
2017-10-01T03:35:53.000Z,20.47
2017-10-01T03:45:53.000Z,20.44
2017-10-01T03:55:53.000Z,20.43
2017-10-01T04:05:53.000Z,20.41
2017-10-01T04:15:53.000Z,20.41
2017-10-01T04:25:53.000Z,20.38
2017-10-01T04:35:53.000Z,20.37
2017-10-01T04:45:53.000Z,20.35
2017-10-01T04:55:53.000Z,20.32
2017-10-01T05:05:53.000Z,20.31
2017-10-01T05:15:54.000Z,20.28
2017-10-01T05:25:53.000Z,20.28
2017-10-01T05:35:53.000Z,20.27
2017-10-01T05:45:53.000Z,20.25
2017-10-01T05:55:54.000Z,20.22
2017-10-01T06:05:54.000Z,20.23
2017-10-01T06:15:54.000Z,20.23
2017-10-01T06:25:54.000Z,20.22
2017-10-01T06:35:54.000Z,20.21
2017-10-01T06:45:54.000Z,20.23
2017-10-01T06:55:54.000Z,20.22
2017-10-01T07:05:54.000Z,20.26
2017-10-01T07:15:54.000Z,20.31
2017-10-01T07:25:54.000Z,20.45
2017-10-01T07:35:54.000Z,20.49
2017-10-01T07:45:54.000Z,20.67
2017-10-01T07:55:54.000Z,21
2017-10-01T08:05:54.000Z,21.1
2017-10-01T08:15:54.000Z,20.96
2017-10-01T08:25:54.000Z,20.92
2017-10-01T08:35:54.000Z,20.93
2017-10-01T08:45:54.000Z,20.94
2017-10-01T08:55:54.000Z,21.07
2017-10-01T09:05:55.000Z,21.18
2017-10-01T09:15:55.000Z,21.3
2017-10-01T09:25:54.000Z,21.42
2017-10-01T09:35:54.000Z,21.59
2017-10-01T09:45:54.000Z,21.77
2017-10-01T09:55:54.000Z,21.9
2017-10-01T10:05:54.000Z,22.06
2017-10-01T10:15:54.000Z,22.13
2017-10-01T10:25:54.000Z,22.16
2017-10-01T10:35:54.000Z,22.2
2017-10-01T10:45:54.000Z,22.32
2017-10-01T10:55:54.000Z,22.37
2017-10-01T11:05:54.000Z,22.43
2017-10-01T11:15:54.000Z,22.48
2017-10-01T11:25:54.000Z,22.48
2017-10-01T11:35:54.000Z,22.44
2017-10-01T11:45:54.000Z,22.43
2017-10-01T11:55:54.000Z,22.5
2017-10-01T12:05:54.000Z,22.49
2017-10-01T12:15:54.000Z,22.46
2017-10-01T12:25:54.000Z,22.44
2017-10-01T12:35:54.000Z,22.38
2017-10-01T12:45:56.000Z,22.37
2017-10-01T12:55:54.000Z,22.38
2017-10-01T13:05:55.000Z,22.39
2017-10-01T13:15:54.000Z,22.44
2017-10-01T13:25:54.000Z,22.58
2017-10-01T13:35:54.000Z,22.48
2017-10-01T13:45:55.000Z,22.51
2017-10-01T13:55:58.000Z,22.52
2017-10-01T14:05:55.000Z,22.46
2017-10-01T14:15:55.000Z,22.44
2017-10-01T14:25:55.000Z,22.5
2017-10-01T14:35:55.000Z,22.46
2017-10-01T14:45:55.000Z,22.52
2017-10-01T14:55:55.000Z,22.52
2017-10-01T15:05:55.000Z,22.57
2017-10-01T15:15:55.000Z,22.63
2017-10-01T15:25:55.000Z,22.59
2017-10-01T15:35:55.000Z,22.6
2017-10-01T15:45:55.000Z,22.64
2017-10-01T15:55:55.000Z,22.64
2017-10-01T16:05:56.000Z,22.63
2017-10-01T16:15:55.000Z,22.63
2017-10-01T16:25:55.000Z,22.71
2017-10-01T16:35:55.000Z,22.25
2017-10-01T16:45:55.000Z,21.99
2017-10-01T16:55:55.000Z,21.88
2017-10-01T17:05:55.000Z,21.65
2017-10-01T17:15:55.000Z,21.45
2017-10-01T17:25:55.000Z,21.51
2017-10-01T17:35:55.000Z,21.39
2017-10-01T17:45:55.000Z,21.2
2017-10-01T17:55:55.000Z,21.07
2017-10-01T18:05:55.000Z,21.09
2017-10-01T18:15:55.000Z,21.09
2017-10-01T18:25:55.000Z,21.13
2017-10-01T18:35:55.000Z,21.05
2017-10-01T18:45:55.000Z,20.94
2017-10-01T18:55:55.000Z,20.86
2017-10-01T19:05:55.000Z,20.8
2017-10-01T19:15:55.000Z,20.67
2017-10-01T19:25:55.000Z,20.42
2017-10-01T19:35:55.000Z,20.54
2017-10-01T19:45:55.000Z,20.63
2017-10-01T19:55:55.000Z,21.2
2017-10-01T20:05:55.000Z,21.33
2017-10-01T20:15:55.000Z,21.41
2017-10-01T20:25:55.000Z,21.43
2017-10-01T20:35:55.000Z,21.44
2017-10-01T20:45:55.000Z,21.48
2017-10-01T20:55:57.000Z,21.52
2017-10-01T21:05:55.000Z,21.51
2017-10-01T21:15:55.000Z,21.49
2017-10-01T21:25:55.000Z,21.5
2017-10-01T21:35:56.000Z,21.46
2017-10-01T21:45:56.000Z,21.43
2017-10-01T21:55:56.000Z,21.41
2017-10-01T22:05:56.000Z,21.38
2017-10-01T22:15:56.000Z,21.37
2017-10-01T22:25:56.000Z,21.34
2017-10-01T22:35:56.000Z,21.31
2017-10-01T22:45:56.000Z,21.29
2017-10-01T22:55:56.000Z,21.28
2017-10-01T23:05:56.000Z,21.26
2017-10-01T23:15:56.000Z,21.24
2017-10-01T23:25:56.000Z,21.24
2017-10-01T23:35:56.000Z,21.2
2017-10-01T23:45:56.000Z,21.21
2017-10-01T23:55:56.000Z,21.17
